Time;durP1;ratioP1;P1;durP2;ratioP2;P2;SDS_P1;SDS_P2;PMS_P1;PMS_P2;Temp;Humidity;BMP_temperature;BMP_pressure;BME280_temperature;BME280_humidity;BME280_pressure;Samples;Min_cycle;Max_cycle;Signal;HPM_P1;HPM_P2
2022/09/17 00:00:54;;;;;;;4.90;2.00;;;20.50;50.70;;;;;;6157139;28;20059;-77
2022/09/17 00:03:59;;;;;;;6.82;1.95;;;20.50;50.50;;;;;;6149196;28;20043;-76
2022/09/17 00:07:00;;;;;;;7.38;1.73;;;20.50;50.40;;;;;;6164474;28;20039;-77
2022/09/17 00:10:01;;;;;;;5.10;2.38;;;20.50;50.30;;;;;;6157132;28;20046;-77
2022/09/17 00:13:01;;;;;;;6.35;2.17;;;20.50;50.30;;;;;;6172945;28;20061;-76
2022/09/17 00:16:03;;;;;;;2.85;1.77;;;20.50;50.20;;;;;;6155835;28;20035;-76
2022/09/17 00:19:05;;;;;;;4.68;2.08;;;20.50;50.20;;;;;;6154989;28;20035;-77
2022/09/17 00:22:06;;;;;;;7.18;2.33;;;20.40;50.20;;;;;;6149912;28;20393;-76
2022/09/17 00:25:07;;;;;;;2.83;2.13;;;20.40;50.20;;;;;;6151027;28;20051;-76
2022/09/17 00:28:08;;;;;;;6.70;2.20;;;20.30;50.20;;;;;;6150853;28;20114;-76
2022/09/17 00:31:09;;;;;;;3.13;1.83;;;20.30;50.20;;;;;;6153674;28;20058;-77
2022/09/17 00:34:11;;;;;;;3.65;1.83;;;20.30;50.20;;;;;;6173625;28;20074;-76
2022/09/17 00:37:11;;;;;;;6.10;2.00;;;20.20;50.00;;;;;;6172337;28;20047;-75
2022/09/17 00:40:12;;;;;;;3.20;1.77;;;20.10;50.40;;;;;;6147144;28;20036;-78
2022/09/17 00:43:13;;;;;;;6.75;1.70;;;20.10;50.10;;;;;;6148494;28;20122;-78
2022/09/17 00:46:28;;;;;;;5.43;1.77;;;20.10;49.80;;;;;;6148021;28;20079;-75
2022/09/17 00:49:31;;;;;;;2.22;1.40;;;20.00;49.90;;;;;;6146979;28;20035;-76
2022/09/17 00:52:45;;;;;;;3.65;1.67;;;19.90;49.90;;;;;;6146163;28;20074;-76
2022/09/17 00:56:03;;;;;;;4.55;1.30;;;19.80;49.90;;;;;;6148254;28;20055;-76
2022/09/17 00:59:05;;;;;;;6.27;1.77;;;19.80;49.70;;;;;;6149171;28;20039;-76
2022/09/17 01:02:06;;;;;;;3.15;1.20;;;19.80;49.60;;;;;;6146765;28;20275;-78
2022/09/17 01:05:09;;;;;;;1.95;1.40;;;19.70;49.30;;;;;;6146401;28;20102;-78
2022/09/17 01:08:12;;;;;;;5.00;1.73;;;19.60;49.30;;;;;;6156023;28;20052;-78
2022/09/17 01:11:47;;;;;;;2.83;1.23;;;19.60;49.10;;;;;;6129733;28;20043;-78
2022/09/17 01:15:12;;;;;;;10.05;1.80;;;19.50;49.10;;;;;;6142784;28;20102;-77
2022/09/17 01:18:54;;;;;;;2.58;1.40;;;19.40;48.90;;;;;;6149434;28;20110;-78
2022/09/17 01:21:58;;;;;;;4.28;1.52;;;19.40;48.90;;;;;;6076140;29;20043;-77
2022/09/17 01:25:21;;;;;;;2.17;1.25;;;19.30;48.90;;;;;;6062779;29;20036;-78
2022/09/17 01:28:25;;;;;;;2.03;1.40;;;19.30;48.90;;;;;;6062611;29;20135;-78
2022/09/17 01:31:34;;;;;;;3.45;1.67;;;19.20;48.80;;;;;;6060737;29;20050;-76
2022/09/17 01:34:57;;;;;;;2.20;1.17;;;19.10;48.80;;;;;;6078155;29;20033;-77
2022/09/17 01:38:04;;;;;;;6.88;1.60;;;19.10;48.80;;;;;;6077668;29;20127;-76
2022/09/17 01:41:31;;;;;;;2.10;1.30;;;19.10;48.80;;;;;;6071160;29;20366;-78
2022/09/17 01:44:47;;;;;;;5.60;1.40;;;19.10;48.90;;;;;;6070298;29;20460;-77
2022/09/17 01:47:57;;;;;;;2.47;1.35;;;19.00;48.90;;;;;;6064875;29;20040;-78
2022/09/17 01:51:10;;;;;;;5.80;1.30;;;19.00;48.80;;;;;;6069730;29;20044;-77
2022/09/17 01:54:26;;;;;;;3.92;1.27;;;18.90;48.70;;;;;;6070336;29;20537;-77
2022/09/17 01:57:27;;;;;;;1.95;1.10;;;18.90;48.70;;;;;;6089035;28;20043;-79
2022/09/17 02:00:29;;;;;;;3.92;1.63;;;18.90;48.70;;;;;;6161021;28;20043;-77
2022/09/17 02:03:36;;;;;;;2.20;1.20;;;18.90;48.70;;;;;;6148675;28;20094;-77
2022/09/17 02:06:39;;;;;;;2.17;1.17;;;18.80;48.70;;;;;;6148472;28;20046;-78
2022/09/17 02:09:44;;;;;;;1.85;1.45;;;18.80;48.70;;;;;;6149798;28;20176;-77
2022/09/17 02:12:52;;;;;;;10.40;1.35;;;18.70;48.90;;;;;;6136928;28;20039;-77
2022/09/17 02:16:09;;;;;;;2.38;1.30;;;18.60;48.90;;;;;;6150730;28;20035;-78
2022/09/17 02:19:23;;;;;;;4.63;1.50;;;18.60;49.00;;;;;;6150479;28;20094;-77
2022/09/17 02:22:34;;;;;;;2.80;1.50;;;18.60;49.00;;;;;;6165649;28;20053;-77
2022/09/17 02:25:57;;;;;;;2.70;1.15;;;18.40;49.00;;;;;;6171623;28;20038;-77
2022/09/17 02:29:06;;;;;;;1.92;1.30;;;18.50;49.20;;;;;;6165710;28;20459;-77
2022/09/17 02:32:07;;;;;;;4.32;1.50;;;18.50;49.20;;;;;;6148463;28;20089;-77
2022/09/17 02:35:12;;;;;;;4.45;1.40;;;18.50;49.20;;;;;;6147186;28;20032;-76
2022/09/17 02:38:21;;;;;;;2.33;1.27;;;18.40;49.20;;;;;;6135440;28;20118;-77
2022/09/17 02:41:28;;;;;;;4.72;1.30;;;18.40;49.30;;;;;;6169595;28;20031;-78
2022/09/17 02:44:48;;;;;;;2.30;1.13;;;18.30;49.30;;;;;;6148952;28;20130;-77
2022/09/17 02:48:01;;;;;;;3.58;1.70;;;18.30;49.30;;;;;;6160531;28;20085;-78
2022/09/17 02:51:20;;;;;;;3.15;1.30;;;18.30;49.30;;;;;;6147826;28;20376;-78
2022/09/17 02:54:44;;;;;;;8.23;1.25;;;18.30;49.30;;;;;;6153228;28;20158;-77
2022/09/17 02:57:53;;;;;;;3.55;1.35;;;18.20;49.30;;;;;;6169994;28;20035;-77
2022/09/17 03:01:00;;;;;;;6.72;1.23;;;18.20;49.30;;;;;;6151461;28;20039;-77
2022/09/17 03:04:03;;;;;;;5.20;1.63;;;18.20;49.30;;;;;;6148071;28;20035;-78
2022/09/17 03:07:10;;;;;;;4.45;1.77;;;18.30;49.30;;;;;;6155931;28;20053;-78
2022/09/17 03:10:12;;;;;;;5.57;1.42;;;18.20;49.20;;;;;;6148214;28;20477;-77
2022/09/17 03:13:13;;;;;;;5.35;1.25;;;18.20;49.20;;;;;;6145674;28;20047;-77
2022/09/17 03:16:14;;;;;;;5.97;1.55;;;18.20;49.20;;;;;;6132096;28;20031;-76
2022/09/17 03:19:15;;;;;;;1.25;1.00;;;18.20;49.10;;;;;;6146854;28;20050;-78
2022/09/17 03:22:16;;;;;;;2.30;1.05;;;18.20;49.00;;;;;;6142415;28;20472;-77
2022/09/17 03:25:16;;;;;;;2.83;1.10;;;18.20;49.00;;;;;;6134261;28;20046;-77
2022/09/17 03:28:17;;;;;;;3.58;1.38;;;18.20;48.90;;;;;;6167674;28;20043;-77
2022/09/17 03:31:18;;;;;;;4.75;1.05;;;18.20;48.70;;;;;;6155188;28;20473;-77
2022/09/17 03:34:20;;;;;;;3.13;1.60;;;18.20;48.70;;;;;;6143551;28;20129;-77
2022/09/17 03:37:20;;;;;;;3.10;1.55;;;18.20;48.60;;;;;;6146743;28;20431;-76
2022/09/17 03:40:21;;;;;;;1.30;0.90;;;18.20;48.30;;;;;;6146454;28;20086;-76
2022/09/17 03:43:22;;;;;;;7.38;1.40;;;18.20;48.30;;;;;;6136481;28;20090;-77
2022/09/17 03:46:23;;;;;;;1.10;0.93;;;18.20;48.20;;;;;;6148675;28;20038;-77
2022/09/17 03:49:24;;;;;;;5.93;1.35;;;18.20;48.10;;;;;;6151561;28;20387;-77
2022/09/17 03:52:25;;;;;;;3.83;1.33;;;18.20;48.10;;;;;;6141896;28;20047;-78
2022/09/17 03:55:26;;;;;;;4.72;1.30;;;18.20;47.90;;;;;;6131013;28;20179;-77
2022/09/17 03:58:28;;;;;;;2.55;1.00;;;18.20;47.80;;;;;;6116593;28;20082;-76
2022/09/17 04:01:29;;;;;;;2.17;1.25;;;18.30;47.70;;;;;;6161439;28;20047;-76
2022/09/17 04:04:29;;;;;;;1.15;0.98;;;18.30;47.70;;;;;;6146100;28;20035;-77
2022/09/17 04:07:30;;;;;;;4.82;1.30;;;18.30;47.70;;;;;;6146612;28;20092;-77
2022/09/17 04:10:31;;;;;;;1.10;0.95;;;18.20;47.60;;;;;;6162996;28;20046;-78
2022/09/17 04:13:32;;;;;;;3.22;1.30;;;18.20;47.70;;;;;;6169280;28;20065;-77
2022/09/17 04:16:33;;;;;;;3.38;0.98;;;18.20;47.70;;;;;;6154810;28;20039;-77
2022/09/17 04:19:34;;;;;;;2.25;1.17;;;18.20;47.60;;;;;;6150167;28;20118;-78
2022/09/17 04:22:34;;;;;;;8.73;1.98;;;18.10;47.70;;;;;;6143273;28;20035;-77
2022/09/17 04:25:35;;;;;;;2.83;1.20;;;18.10;47.80;;;;;;6144908;28;20093;-76
2022/09/17 04:28:36;;;;;;;1.50;1.20;;;18.00;47.90;;;;;;6143640;28;20047;-78
2022/09/17 04:31:37;;;;;;;3.22;1.20;;;18.00;48.00;;;;;;6144868;28;20047;-76
2022/09/17 04:34:38;;;;;;;3.53;1.20;;;17.90;48.00;;;;;;6130197;28;20050;-77
2022/09/17 04:37:39;;;;;;;3.22;1.27;;;18.00;48.00;;;;;;6146400;28;20043;-76
2022/09/17 04:40:41;;;;;;;1.23;1.00;;;18.00;48.10;;;;;;6151951;28;20092;-76
2022/09/17 04:43:41;;;;;;;2.03;1.08;;;17.90;48.20;;;;;;6145374;28;20063;-76
2022/09/17 04:46:42;;;;;;;1.83;1.15;;;17.90;48.30;;;;;;6147616;28;20486;-77
2022/09/17 04:49:43;;;;;;;7.40;1.60;;;17.90;48.40;;;;;;6146341;28;20532;-77
2022/09/17 04:52:44;;;;;;;2.67;1.13;;;17.80;48.20;;;;;;6163007;28;20030;-76
2022/09/17 04:55:45;;;;;;;3.22;1.25;;;17.80;48.30;;;;;;6151124;28;20386;-76
2022/09/17 04:58:46;;;;;;;2.72;1.10;;;17.80;48.40;;;;;;6149747;28;20051;-77
2022/09/17 05:01:48;;;;;;;1.88;0.95;;;17.70;48.40;;;;;;6148751;28;20474;-78
2022/09/17 05:04:49;;;;;;;5.32;1.00;;;17.70;48.60;;;;;;6159585;28;20043;-76
2022/09/17 05:07:50;;;;;;;1.63;1.30;;;17.70;48.70;;;;;;6157169;28;20664;-76
2022/09/17 05:10:51;;;;;;;3.72;1.30;;;17.70;48.80;;;;;;6141464;28;20054;-77
2022/09/17 05:13:52;;;;;;;4.40;1.13;;;17.60;49.00;;;;;;6154754;28;20042;-78
2022/09/17 05:16:53;;;;;;;1.50;1.10;;;17.60;49.10;;;;;;6134232;28;20114;-77
2022/09/17 05:19:53;;;;;;;8.63;1.10;;;17.60;49.20;;;;;;6133500;28;20065;-78
2022/09/17 05:22:56;;;;;;;3.20;0.95;;;17.50;49.20;;;;;;6150087;28;20039;-77
2022/09/17 05:25:59;;;;;;;2.33;1.20;;;17.50;49.40;;;;;;6173516;28;20043;-79
2022/09/17 05:29:00;;;;;;;1.08;0.90;;;17.50;49.70;;;;;;6172419;28;20050;-76
2022/09/17 05:32:01;;;;;;;3.08;1.20;;;17.40;50.30;;;;;;6159790;28;20039;-76
2022/09/17 05:35:03;;;;;;;2.95;1.17;;;17.40;49.90;;;;;;6149624;28;20047;-77
2022/09/17 05:38:05;;;;;;;3.10;1.10;;;17.40;49.90;;;;;;6148746;28;20043;-77
2022/09/17 05:41:06;;;;;;;5.35;1.35;;;17.40;50.10;;;;;;6147378;28;20031;-77
2022/09/17 05:44:06;;;;;;;6.00;1.23;;;17.40;50.10;;;;;;6156852;28;20059;-78
2022/09/17 05:47:07;;;;;;;4.78;1.15;;;17.40;50.30;;;;;;6150547;28;20047;-78
2022/09/17 05:50:08;;;;;;;6.15;1.40;;;17.40;50.90;;;;;;6130400;28;20055;-78
2022/09/17 05:53:11;;;;;;;9.90;1.33;;;17.30;50.30;;;;;;6172590;28;20743;-77
2022/09/17 05:56:11;;;;;;;1.95;1.17;;;17.30;50.40;;;;;;6168584;28;20375;-77
2022/09/17 05:59:14;;;;;;;1.83;1.00;;;17.30;50.40;;;;;;6178010;28;20030;-77
2022/09/17 06:02:16;;;;;;;5.95;1.40;;;17.40;50.40;;;;;;6143385;28;20380;-78
2022/09/17 06:05:17;;;;;;;2.33;1.20;;;17.30;50.40;;;;;;6164642;28;20050;-78
2022/09/17 06:08:18;;;;;;;2.20;1.20;;;17.30;50.50;;;;;;6164195;28;20050;-78
2022/09/17 06:11:19;;;;;;;3.53;1.10;;;17.30;50.50;;;;;;6149446;28;20097;-78
2022/09/17 06:14:20;;;;;;;3.00;1.17;;;17.30;50.50;;;;;;6147005;28;20298;-77
2022/09/17 06:17:21;;;;;;;4.38;1.27;;;17.30;50.60;;;;;;6149168;28;20114;-77
2022/09/17 06:20:22;;;;;;;1.25;1.10;;;17.40;50.60;;;;;;6147387;28;20035;-77
2022/09/17 06:23:23;;;;;;;1.13;1.00;;;17.40;50.50;;;;;;6150484;28;20027;-76
2022/09/17 06:26:24;;;;;;;2.58;1.02;;;17.40;50.40;;;;;;6150159;28;20035;-76
2022/09/17 06:29:25;;;;;;;3.60;0.90;;;17.40;50.30;;;;;;6146850;28;20042;-78
2022/09/17 06:32:27;;;;;;;1.88;1.10;;;17.50;50.10;;;;;;6170247;28;20047;-78
2022/09/17 06:35:28;;;;;;;2.83;1.13;;;17.60;50.00;;;;;;6172402;28;20049;-76
2022/09/17 06:38:31;;;;;;;2.40;1.00;;;17.60;49.80;;;;;;6156157;28;20043;-75
2022/09/17 06:41:32;;;;;;;1.63;1.00;;;17.60;50.30;;;;;;6149897;28;20118;-77
2022/09/17 06:44:34;;;;;;;2.28;0.90;;;17.60;49.60;;;;;;6134552;28;20557;-77
2022/09/17 06:47:35;;;;;;;3.42;1.25;;;17.60;49.50;;;;;;6173417;28;20159;-78
2022/09/17 06:50:35;;;;;;;0.85;0.85;;;17.60;49.30;;;;;;6156151;28;20057;-77
2022/09/17 06:53:37;;;;;;;1.95;1.08;;;17.70;49.00;;;;;;6149478;28;20055;-77
2022/09/17 06:56:38;;;;;;;0.95;0.70;;;17.70;48.90;;;;;;6154419;28;20039;-77
2022/09/17 06:59:38;;;;;;;1.23;0.90;;;17.80;48.70;;;;;;6152474;28;20043;-77
2022/09/17 07:02:39;;;;;;;6.43;1.08;;;17.90;48.50;;;;;;6149114;28;20035;-77
2022/09/17 07:05:43;;;;;;;1.85;1.15;;;17.90;48.30;;;;;;6169608;28;20039;-77
2022/09/17 07:08:45;;;;;;;2.33;1.00;;;17.90;48.90;;;;;;6156301;28;20369;-77
2022/09/17 07:11:48;;;;;;;3.08;1.17;;;18.00;48.20;;;;;;6162221;28;20069;-77
2022/09/17 07:14:49;;;;;;;1.27;1.00;;;18.00;47.90;;;;;;6159836;28;20114;-79
2022/09/17 07:17:50;;;;;;;6.07;1.17;;;18.10;47.70;;;;;;6158013;28;20050;-77
2022/09/17 07:20:59;;;;;;;2.08;0.93;;;18.20;47.60;;;;;;6145338;28;20039;-76
2022/09/17 07:24:00;;;;;;;1.95;1.05;;;18.20;47.50;;;;;;6159966;28;20066;-77
2022/09/17 07:27:01;;;;;;;5.50;1.20;;;18.20;47.40;;;;;;6162402;28;20069;-76
2022/09/17 07:30:02;;;;;;;5.38;1.20;;;18.30;47.30;;;;;;6152860;28;20392;-78
2022/09/17 07:33:03;;;;;;;2.95;0.80;;;18.40;47.10;;;;;;6151802;28;20499;-76
2022/09/17 07:36:07;;;;;;;4.97;1.00;;;18.40;47.00;;;;;;6131280;28;20171;-76
2022/09/17 07:39:08;;;;;;;2.40;1.20;;;18.40;46.70;;;;;;6173183;28;20046;-78
2022/09/17 07:42:10;;;;;;;4.40;1.02;;;18.40;46.60;;;;;;6152518;28;20134;-77
2022/09/17 07:45:11;;;;;;;1.17;1.08;;;18.50;46.50;;;;;;6150060;28;20051;-77
2022/09/17 07:48:13;;;;;;;5.72;2.33;;;18.50;46.30;;;;;;6158729;28;20110;-77
2022/09/17 07:51:23;;;;;;;1.23;1.10;;;18.50;46.30;;;;;;6164305;28;20043;-77
2022/09/17 07:54:24;;;;;;;1.42;0.77;;;18.40;46.50;;;;;;6159276;28;20079;-77
2022/09/17 07:57:25;;;;;;;2.28;0.70;;;18.50;46.40;;;;;;6165739;28;20039;-78
2022/09/17 08:00:26;;;;;;;5.03;0.77;;;18.50;46.10;;;;;;6136293;28;20542;-78
2022/09/17 08:03:27;;;;;;;6.75;1.60;;;18.60;45.90;;;;;;6164904;28;20043;-77
2022/09/17 08:06:28;;;;;;;0.85;0.80;;;18.70;45.80;;;;;;6155122;28;20104;-78
2022/09/17 08:09:29;;;;;;;5.43;1.17;;;18.80;45.70;;;;;;6166205;28;20108;-77
2022/09/17 08:12:30;;;;;;;1.17;0.70;;;18.90;45.60;;;;;;6170204;28;20054;-77
2022/09/17 08:15:31;;;;;;;0.98;0.73;;;19.00;45.40;;;;;;6170687;28;20054;-76
2022/09/17 08:18:33;;;;;;;1.92;0.80;;;19.10;45.10;;;;;;6160105;28;20043;-77
2022/09/17 08:21:34;;;;;;;2.03;1.08;;;19.30;44.80;;;;;;6160194;28;20039;-79
2022/09/17 08:24:35;;;;;;;2.97;0.90;;;19.40;44.30;;;;;;6167293;28;20187;-78
2022/09/17 08:27:37;;;;;;;2.17;0.50;;;19.40;44.10;;;;;;6158082;28;20477;-78
2022/09/17 08:30:38;;;;;;;1.83;0.90;;;19.50;44.00;;;;;;6156434;28;20114;-77
2022/09/17 08:33:40;;;;;;;0.60;0.60;;;19.60;43.60;;;;;;6158140;28;20045;-77
2022/09/17 08:36:41;;;;;;;2.92;0.90;;;19.80;43.80;;;;;;6163293;28;20098;-77
2022/09/17 08:39:42;;;;;;;3.42;0.93;;;19.90;43.00;;;;;;6159198;28;20039;-77
2022/09/17 08:42:53;;;;;;;1.70;0.70;;;20.10;42.80;;;;;;6167805;28;20047;-77
2022/09/17 08:45:55;;;;;;;1.00;0.57;;;20.20;42.30;;;;;;6151775;28;20588;-77
2022/09/17 08:49:23;;;;;;;2.97;0.55;;;20.20;41.90;;;;;;6169287;28;20087;-77
2022/09/17 08:52:29;;;;;;;2.47;0.63;;;20.30;41.90;;;;;;6163379;28;20035;-78
2022/09/17 08:55:42;;;;;;;1.48;0.93;;;20.40;41.40;;;;;;6161618;28;20040;-78
2022/09/17 08:59:11;;;;;;;0.85;0.60;;;20.40;41.20;;;;;;6166023;28;20030;-78
2022/09/17 09:02:17;;;;;;;2.23;0.50;;;20.60;40.90;;;;;;6151167;28;20070;-78
2022/09/17 09:05:29;;;;;;;0.90;0.45;;;20.70;40.60;;;;;;6154121;28;20077;-79
2022/09/17 09:08:39;;;;;;;1.00;0.50;;;20.70;40.30;;;;;;6162836;28;20063;-79
2022/09/17 09:11:42;;;;;;;4.80;0.50;;;20.70;40.10;;;;;;6150805;28;20059;-78
2022/09/17 09:15:04;;;;;;;2.78;0.68;;;20.80;39.90;;;;;;6153017;28;20686;-79
2022/09/17 09:18:24;;;;;;;1.42;0.70;;;20.80;38.90;;;;;;6153986;28;20401;-79
2022/09/17 09:21:27;;;;;;;1.33;0.57;;;20.80;38.70;;;;;;6150256;28;20074;-79
2022/09/17 09:24:49;;;;;;;1.92;0.50;;;21.00;38.40;;;;;;6153176;28;20039;-79
2022/09/17 09:27:56;;;;;;;0.95;0.57;;;21.00;38.40;;;;;;6159060;28;20142;-79
2022/09/17 09:31:18;;;;;;;0.90;0.75;;;21.00;38.40;;;;;;6136659;28;20421;-79
2022/09/17 09:34:19;;;;;;;0.52;0.45;;;21.00;37.90;;;;;;6152313;28;20058;-78
2022/09/17 09:37:26;;;;;;;4.35;0.68;;;21.10;37.70;;;;;;6151078;28;20183;-78
2022/09/17 09:40:47;;;;;;;0.63;0.40;;;21.00;37.50;;;;;;6155404;28;20035;-78
2022/09/17 09:43:57;;;;;;;9.88;0.88;;;21.10;37.40;;;;;;6162285;28;20061;-80
2022/09/17 09:46:58;;;;;;;0.82;0.50;;;21.10;37.30;;;;;;6167171;28;20113;-79
2022/09/17 09:50:19;;;;;;;1.13;0.50;;;21.20;37.20;;;;;;6176184;28;20054;-78
2022/09/17 09:53:34;;;;;;;1.63;0.70;;;21.20;36.80;;;;;;6157817;28;20035;-78
2022/09/17 09:56:55;;;;;;;0.55;0.38;;;21.30;36.60;;;;;;6155348;28;20051;-77
2022/09/17 10:00:25;;;;;;;0.30;0.30;;;21.30;36.30;;;;;;6156461;28;20138;-80
2022/09/17 10:03:37;;;;;;;2.28;0.45;;;21.40;36.20;;;;;;6057049;29;20055;-80
2022/09/17 10:06:39;;;;;;;3.22;0.50;;;21.40;35.90;;;;;;6066633;29;20040;-78
2022/09/17 10:09:45;;;;;;;1.40;0.57;;;21.50;35.70;;;;;;6076210;29;20116;-79
2022/09/17 10:12:46;;;;;;;2.13;0.60;;;21.50;35.40;;;;;;6066157;29;20048;-78
2022/09/17 10:15:47;;;;;;;0.30;0.30;;;21.60;35.30;;;;;;6068472;29;20040;-78
2022/09/17 10:18:50;;;;;;;2.70;0.57;;;21.70;35.30;;;;;;6068174;29;20069;-79
2022/09/17 10:21:52;;;;;;;6.30;0.73;;;21.80;35.30;;;;;;6077526;29;20052;-78
2022/09/17 10:24:56;;;;;;;2.25;0.60;;;21.90;35.10;;;;;;6061285;29;20512;-79
2022/09/17 10:28:00;;;;;;;0.77;0.50;;;22.00;34.90;;;;;;6062466;29;20446;-78
2022/09/17 10:31:07;;;;;;;1.45;0.85;;;22.10;34.60;;;;;;6075601;29;20048;-77
2022/09/17 10:34:23;;;;;;;1.05;0.70;;;22.30;34.20;;;;;;6075201;29;20033;-79
2022/09/17 10:37:41;;;;;;;1.02;0.40;;;22.70;33.90;;;;;;6074871;29;20037;-77
2022/09/17 10:40:42;;;;;;;0.60;0.32;;;23.00;32.90;;;;;;6121473;28;20031;-79
2022/09/17 10:43:43;;;;;;;1.27;0.57;;;23.20;32.90;;;;;;6151906;28;20353;-79
2022/09/17 10:46:44;;;;;;;1.95;0.40;;;23.30;31.90;;;;;;6149247;28;22745;-79
2022/09/17 10:49:54;;;;;;;1.35;0.57;;;23.40;32.00;;;;;;6158956;28;20138;-79
2022/09/17 10:52:57;;;;;;;1.40;0.90;;;23.40;32.00;;;;;;6157697;28;20532;-79
2022/09/17 10:56:22;;;;;;;1.10;0.70;;;23.40;32.20;;;;;;6150261;28;20046;-79
2022/09/17 10:59:48;;;;;;;0.93;0.60;;;23.50;32.40;;;;;;6147429;28;20425;-79
2022/09/17 11:03:25;;;;;;;3.00;0.52;;;23.60;32.10;;;;;;6130633;28;20050;-79
2022/09/17 11:06:50;;;;;;;1.33;0.63;;;23.40;32.40;;;;;;6151813;28;20046;-79
2022/09/17 11:10:01;;;;;;;1.20;0.57;;;23.20;33.10;;;;;;6134024;28;20078;-79
2022/09/17 11:13:29;;;;;;;0.82;0.40;;;23.10;33.50;;;;;;6123703;28;20035;-79
2022/09/17 11:17:13;;;;;;;1.80;0.80;;;23.10;33.40;;;;;;6145388;28;20043;-79
2022/09/17 11:20:23;;;;;;;0.75;0.55;;;23.00;33.40;;;;;;6077918;29;20036;-79
2022/09/17 11:23:45;;;;;;;2.55;0.70;;;22.90;33.70;;;;;;6084939;29;20485;-79
2022/09/17 11:26:55;;;;;;;1.27;0.65;;;22.90;33.70;;;;;;6094962;29;20028;-79
2022/09/17 11:30:32;;;;;;;1.23;0.52;;;22.70;33.70;;;;;;6093971;29;20236;-78
2022/09/17 11:33:55;;;;;;;1.60;0.40;;;22.50;34.00;;;;;;5981551;29;20116;-78
2022/09/17 11:37:10;;;;;;;0.85;0.47;;;22.30;34.50;;;;;;5989798;29;20453;-79
2022/09/17 11:40:21;;;;;;;2.00;0.60;;;22.10;35.00;;;;;;5966424;29;20054;-78
2022/09/17 11:44:07;;;;;;;0.60;0.38;;;22.10;35.30;;;;;;5996044;29;20072;-78
2022/09/17 11:47:13;;;;;;;0.50;0.20;;;22.00;35.60;;;;;;5984171;29;20485;-79
2022/09/17 11:50:34;;;;;;;0.45;0.40;;;22.10;35.70;;;;;;5990820;29;20034;-78
2022/09/17 11:53:45;;;;;;;0.85;0.40;;;22.30;35.40;;;;;;6003450;29;20342;-79
2022/09/17 11:56:50;;;;;;;1.40;0.50;;;22.50;35.20;;;;;;6046066;29;20044;-79
2022/09/17 11:59:57;;;;;;;2.33;0.80;;;22.90;34.70;;;;;;6053355;29;20048;-78
2022/09/17 12:03:12;;;;;;;1.80;0.77;;;23.10;34.10;;;;;;6051863;29;20056;-79
2022/09/17 12:06:24;;;;;;;2.47;0.50;;;23.50;33.80;;;;;;6030534;29;20061;-78
2022/09/17 12:09:30;;;;;;;3.25;0.60;;;23.70;33.40;;;;;;6119248;28;20066;-77
2022/09/17 12:12:33;;;;;;;0.30;0.30;;;23.90;33.10;;;;;;6168644;28;20038;-77
2022/09/17 12:15:39;;;;;;;0.95;0.28;;;24.40;32.50;;;;;;6145861;28;20435;-79
2022/09/17 12:19:14;;;;;;;1.80;0.40;;;24.90;31.50;;;;;;6145179;28;20372;-79
2022/09/17 12:22:29;;;;;;;2.22;0.50;;;24.90;31.10;;;;;;6152382;28;20027;-80
2022/09/17 12:25:37;;;;;;;1.23;0.55;;;25.10;31.20;;;;;;6163516;28;20658;-78
2022/09/17 12:29:03;;;;;;;3.53;0.65;;;25.70;30.30;;;;;;6164233;28;20043;-79
2022/09/17 12:32:17;;;;;;;0.50;0.50;;;26.30;29.70;;;;;;6144803;28;20065;-79
2022/09/17 12:35:20;;;;;;;1.10;0.30;;;27.10;28.80;;;;;;6138610;28;20038;-79
2022/09/17 12:38:21;;;;;;;1.00;0.30;;;27.40;28.10;;;;;;6143309;28;20175;-80
2022/09/17 12:41:46;;;;;;;0.55;0.40;;;27.60;27.90;;;;;;6138507;28;20035;-79
2022/09/17 12:45:21;;;;;;;0.98;0.55;;;27.90;27.80;;;;;;6148704;28;20028;-78
2022/09/17 12:48:29;;;;;;;1.52;0.40;;;28.70;27.20;;;;;;6144133;28;20054;-79
2022/09/17 12:51:30;;;;;;;2.28;0.47;;;29.00;26.50;;;;;;6146184;28;20035;-79
2022/09/17 12:54:34;;;;;;;2.67;0.40;;;29.00;26.30;;;;;;6149540;28;20035;-78
2022/09/17 12:57:50;;;;;;;0.80;0.55;;;29.30;26.10;;;;;;6167324;28;20135;-79
2022/09/17 13:00:57;;;;;;;2.45;0.32;;;29.70;25.20;;;;;;6157311;28;20035;-79
2022/09/17 13:04:14;;;;;;;0.32;0.30;;;30.00;24.70;;;;;;6145996;28;20030;-81
2022/09/17 13:07:35;;;;;;;0.98;0.32;;;30.10;24.60;;;;;;6120123;28;20114;-79
2022/09/17 13:11:04;;;;;;;0.98;0.40;;;30.20;24.30;;;;;;6142211;28;20047;-80
2022/09/17 13:14:30;;;;;;;1.40;0.50;;;30.80;24.10;;;;;;6155662;28;20082;-80
2022/09/17 13:17:38;;;;;;;1.25;0.43;;;31.10;24.00;;;;;;6142965;28;20035;-80
2022/09/17 13:20:52;;;;;;;;;;;31.20;23.60;;;;;;6148305;28;20039;-79
2022/09/17 13:23:54;;;;;;;1.55;0.45;;;31.40;23.50;;;;;;6154056;28;19942;-80
2022/09/17 13:26:57;;;;;;;0.30;0.22;;;31.60;23.30;;;;;;6156299;28;20784;-79
2022/09/17 13:30:00;;;;;;;1.15;0.40;;;31.60;22.90;;;;;;6153497;28;20061;-78
2022/09/17 13:33:01;;;;;;;1.75;0.70;;;31.40;22.40;;;;;;6154520;28;20376;-79
2022/09/17 13:36:03;;;;;;;0.77;0.25;;;30.40;23.20;;;;;;6172243;28;20054;-79
2022/09/17 13:39:07;;;;;;;0.38;0.38;;;29.20;24.20;;;;;;6160188;28;20039;-80
2022/09/17 13:42:16;;;;;;;0.65;0.28;;;28.00;25.40;;;;;;6149400;28;20039;-79
2022/09/17 13:45:19;;;;;;;3.38;0.70;;;27.10;26.50;;;;;;6160025;28;20097;-79
2022/09/17 13:48:24;;;;;;;1.33;0.40;;;26.40;27.20;;;;;;6148775;28;20047;-80
2022/09/17 13:51:31;;;;;;;3.50;0.43;;;25.80;28.00;;;;;;6149888;28;20485;-79
2022/09/17 13:54:37;;;;;;;0.80;0.30;;;25.30;28.50;;;;;;6161948;28;20048;-79
2022/09/17 13:57:50;;;;;;;0.55;0.20;;;25.00;29.10;;;;;;6171828;28;20063;-80
2022/09/17 14:01:01;;;;;;;0.70;0.35;;;24.60;29.60;;;;;;6157130;28;20094;-78
2022/09/17 14:04:03;;;;;;;0.82;0.25;;;24.30;30.00;;;;;;6134710;28;20034;-79
2022/09/17 14:07:23;;;;;;;0.10;0.10;;;24.00;30.30;;;;;;6167861;28;20070;-79
2022/09/17 14:10:36;;;;;;;0.20;0.20;;;23.80;30.90;;;;;;6166970;28;20063;-80
2022/09/17 14:13:42;;;;;;;2.95;0.50;;;23.70;31.30;;;;;;6177342;28;20050;-80
2022/09/17 14:16:44;;;;;;;0.40;0.40;;;23.60;31.40;;;;;;6157444;28;20035;-79
2022/09/17 14:19:50;;;;;;;1.52;0.32;;;23.50;31.60;;;;;;6131845;28;20042;-80
2022/09/17 14:22:59;;;;;;;1.52;0.45;;;23.40;31.80;;;;;;6147184;28;20045;-79
2022/09/17 14:26:04;;;;;;;2.05;0.50;;;23.30;32.20;;;;;;6158446;28;20050;-80
2022/09/17 14:29:18;;;;;;;0.60;0.30;;;23.20;32.40;;;;;;6171733;28;20101;-79
2022/09/17 14:32:32;;;;;;;0.32;0.28;;;23.10;32.60;;;;;;6149377;28;20074;-79
2022/09/17 14:35:40;;;;;;;3.42;0.35;;;23.00;32.80;;;;;;6156936;28;20038;-79
2022/09/17 14:38:48;;;;;;;1.35;0.55;;;22.90;33.00;;;;;;6167441;28;20035;-80
2022/09/17 14:41:51;;;;;;;1.27;0.38;;;22.90;33.10;;;;;;6165271;28;20046;-79
2022/09/17 14:45:02;;;;;;;2.67;0.50;;;22.80;33.40;;;;;;6145615;28;20433;-78
2022/09/17 14:48:31;;;;;;;2.85;0.45;;;22.70;33.60;;;;;;6159116;28;20417;-79
2022/09/17 14:51:32;;;;;;;0.30;0.30;;;22.70;33.70;;;;;;6168702;28;20379;-79
2022/09/17 14:54:33;;;;;;;1.85;0.45;;;22.70;33.90;;;;;;6169195;28;20034;-80
2022/09/17 14:57:35;;;;;;;2.03;0.52;;;22.60;34.10;;;;;;6165681;28;20030;-78
2022/09/17 15:00:37;;;;;;;1.55;0.32;;;22.50;34.40;;;;;;6143808;28;20039;-79
2022/09/17 15:03:38;;;;;;;1.75;0.73;;;22.40;34.40;;;;;;6145210;28;20333;-79
2022/09/17 15:06:40;;;;;;;1.88;0.32;;;22.40;34.50;;;;;;6128297;28;20066;-80
2022/09/17 15:09:41;;;;;;;1.55;0.40;;;22.40;34.60;;;;;;6145945;28;20051;-78
2022/09/17 15:12:44;;;;;;;0.38;0.20;;;22.40;34.70;;;;;;6137478;28;20032;-78
2022/09/17 15:16:02;;;;;;;2.42;0.45;;;22.40;34.60;;;;;;6148448;28;20042;-79
2022/09/17 15:19:03;;;;;;;1.35;0.40;;;22.30;34.60;;;;;;6156322;28;20063;-78
2022/09/17 15:22:11;;;;;;;1.15;0.38;;;22.20;34.90;;;;;;6169718;28;20045;-80
2022/09/17 15:25:25;;;;;;;0.70;0.50;;;22.20;35.00;;;;;;6178915;28;20483;-80
2022/09/17 15:28:41;;;;;;;1.20;0.20;;;22.30;35.00;;;;;;6148356;28;20047;-81
2022/09/17 15:31:42;;;;;;;1.70;0.35;;;22.20;34.90;;;;;;6159305;28;20483;-79
2022/09/17 15:34:43;;;;;;;0.98;0.40;;;22.20;35.10;;;;;;6149366;28;20047;-80
2022/09/17 15:37:55;;;;;;;0.13;0.10;;;22.20;35.10;;;;;;6152031;28;20039;-77
2022/09/17 15:41:29;;;;;;;1.60;0.30;;;22.10;35.10;;;;;;6146622;28;20416;-79
2022/09/17 15:44:31;;;;;;;0.80;0.22;;;22.00;35.90;;;;;;6154397;28;20439;-79
2022/09/17 15:47:48;;;;;;;0.70;0.40;;;21.90;35.30;;;;;;6142480;28;20031;-79
2022/09/17 15:50:52;;;;;;;11.60;0.60;;;21.90;35.50;;;;;;6156283;28;20099;-80
2022/09/17 15:54:03;;;;;;;1.02;0.55;;;21.90;35.50;;;;;;6179596;28;20035;-79
2022/09/17 15:57:04;;;;;;;0.77;0.40;;;21.80;35.50;;;;;;6136608;28;20046;-79
2022/09/17 16:00:14;;;;;;;1.30;0.40;;;21.80;35.60;;;;;;6146068;28;20356;-79
2022/09/17 16:04:08;;;;;;;1.30;0.30;;;21.80;35.60;;;;;;6124025;28;20079;-79
2022/09/17 16:07:12;;;;;;;6.22;0.60;;;21.80;35.60;;;;;;6141706;28;20054;-78
2022/09/17 16:10:16;;;;;;;0.20;0.13;;;21.80;35.50;;;;;;6153053;28;20051;-79
2022/09/17 16:13:17;;;;;;;1.80;0.45;;;21.80;35.50;;;;;;6145381;28;20047;-80
2022/09/17 16:16:21;;;;;;;3.10;0.65;;;21.90;35.40;;;;;;6144970;28;20039;-79